createdAt,value
2022-11-12T00:01:04.798Z,45.55
2022-11-12T00:03:32.499Z,53.08
2022-11-12T00:06:00.186Z,49.05
2022-11-12T00:08:28.271Z,67.75
2022-11-12T00:10:57.537Z,52.92
2022-11-12T00:13:25.265Z,51.78
2022-11-12T00:15:53.003Z,52.72
2022-11-12T00:18:20.945Z,50.55
2022-11-12T00:20:48.638Z,51.25
2022-11-12T00:23:16.333Z,50.33
2022-11-12T00:25:44.061Z,49.60
2022-11-12T00:28:13.246Z,49.25
2022-11-12T00:30:42.245Z,66.10
2022-11-12T00:33:10.202Z,48.60
2022-11-12T00:35:37.988Z,50.67
2022-11-12T00:38:05.704Z,48.80
2022-11-12T00:40:33.392Z,49.65
2022-11-12T00:43:01.075Z,47.72
2022-11-12T00:45:30.110Z,49.70
2022-11-12T00:47:58.267Z,47.90
2022-11-12T00:50:26.620Z,49.15
2022-11-12T00:52:54.678Z,44.45
2022-11-12T00:55:22.522Z,44.03
2022-11-12T00:57:50.602Z,47.42
2022-11-12T01:00:19.909Z,47.97
2022-11-12T01:02:51.252Z,47.03
2022-11-12T01:05:20.386Z,51.75
2022-11-12T01:07:53.155Z,51.55
2022-11-12T01:10:23.486Z,52.95
2022-11-12T01:12:51.176Z,49.30
2022-11-12T01:15:19.172Z,52.53
2022-11-12T01:17:47.051Z,46.33
2022-11-12T01:20:16.238Z,46.90
2022-11-12T01:22:43.971Z,44.60
2022-11-12T01:25:12.130Z,40.72
2022-11-12T01:27:39.968Z,40.78
2022-11-12T01:30:08.704Z,40.30
2022-11-12T01:32:37.779Z,40.15
2022-11-12T01:35:06.717Z,42.67
2022-11-12T01:37:35.801Z,43.53
2022-11-12T01:40:03.609Z,44.85
2022-11-12T01:42:33.837Z,46.45
2022-11-12T01:45:01.571Z,40.67
2022-11-12T01:47:33.008Z,39.50
2022-11-12T01:50:06.791Z,39.20
2022-11-12T01:52:41.240Z,42.88
2022-11-12T01:55:14.699Z,42.13
2022-11-12T01:57:46.781Z,40.80
2022-11-12T02:02:46.601Z,47.17
2022-11-12T02:05:15.994Z,39.92
2022-11-12T02:07:47.007Z,41.92
2022-11-12T02:10:15.253Z,47.65
2022-11-12T02:13:01.400Z,48.22
2022-11-12T02:15:29.303Z,45.30
2022-11-12T02:17:57.053Z,50.53
2022-11-12T02:20:24.914Z,49.20
2022-11-12T02:22:54.350Z,47.10
2022-11-12T02:25:25.564Z,45.35
2022-11-12T02:27:55.484Z,46.53
2022-11-12T02:30:33.766Z,47.50
2022-11-12T02:33:01.565Z,51.70
2022-11-12T02:35:29.308Z,49.80
2022-11-12T02:37:58.976Z,50.25
2022-11-12T02:40:27.341Z,51.70
2022-11-12T02:42:55.254Z,47.72
2022-11-12T02:45:23.555Z,49.88
2022-11-12T02:47:51.241Z,49.20
2022-11-12T02:50:19.553Z,55.55
2022-11-12T02:52:47.261Z,51.60
2022-11-12T02:55:16.482Z,50.65
2022-11-12T02:57:44.169Z,45.15
2022-11-12T03:00:14.401Z,48.67
2022-11-12T03:02:43.574Z,50.92
2022-11-12T03:05:12.706Z,47.13
2022-11-12T03:07:40.806Z,51.08
2022-11-12T03:10:09.002Z,55.85
2022-11-12T03:12:38.042Z,53.75
2022-11-12T03:15:06.630Z,56.88
2022-11-12T03:17:35.782Z,54.55
2022-11-12T03:20:03.902Z,56.15
2022-11-12T03:22:31.958Z,57.88
2022-11-12T03:24:59.673Z,60.90
2022-11-12T03:27:27.396Z,52.70
2022-11-12T03:29:56.456Z,58.38
2022-11-12T03:32:24.343Z,58.55
2022-11-12T03:34:55.373Z,58.63
2022-11-12T03:37:23.329Z,61.40
2022-11-12T03:39:51.031Z,56.50
2022-11-12T03:42:18.745Z,61.17
2022-11-12T03:44:46.452Z,56.88
2022-11-12T03:47:15.706Z,58.35
2022-11-12T03:49:43.414Z,56.67
2022-11-12T03:52:11.106Z,65.80
2022-11-12T03:54:38.823Z,60.58
2022-11-12T03:57:06.520Z,60.72
2022-11-12T03:59:34.216Z,60.97
2022-11-12T04:02:01.927Z,59.28
2022-11-12T04:04:50.989Z,57.47
2022-11-12T04:07:36.239Z,62.90
2022-11-12T04:10:04.208Z,59.05
2022-11-12T04:12:49.263Z,60.53
2022-11-12T04:15:17.101Z,60.85
2022-11-12T04:18:02.377Z,57.95
2022-11-12T04:20:49.045Z,58.25
2022-11-12T04:23:16.746Z,58.13
2022-11-12T04:26:02.558Z,59.33
2022-11-12T04:28:30.219Z,61.70
2022-11-12T04:30:56.908Z,54.20
2022-11-12T04:33:24.602Z,57.83
2022-11-12T04:35:53.699Z,63.42
2022-11-12T04:38:21.361Z,58.55
2022-11-12T04:41:07.220Z,57.05
2022-11-12T04:43:52.549Z,58.67
2022-11-12T04:46:20.279Z,56.70
2022-11-12T04:48:48.012Z,52.42
2022-11-12T04:51:34.750Z,56.83
2022-11-12T04:54:02.826Z,54.45
2022-11-12T04:56:30.597Z,45.50
2022-11-12T04:58:58.606Z,53.90
2022-11-12T05:01:26.388Z,48.63
2022-11-12T05:03:54.083Z,48.92
2022-11-12T05:06:37.211Z,48.45
2022-11-12T05:09:05.005Z,45.88
2022-11-12T05:11:32.685Z,49.35
2022-11-12T05:14:00.514Z,49.55
2022-11-12T05:16:28.238Z,41.50
2022-11-12T05:18:55.912Z,38.85
2022-11-12T05:21:43.598Z,46.63
2022-11-12T05:24:22.478Z,43.90
2022-11-12T05:26:59.244Z,47.45
2022-11-12T05:29:27.079Z,44.78
2022-11-12T05:31:55.156Z,45.35
2022-11-12T05:34:23.274Z,43.50
2022-11-12T05:36:52.792Z,44.35
2022-11-12T05:39:20.545Z,41.15
2022-11-12T05:42:11.340Z,44.38
2022-11-12T05:44:36.526Z,43.85
2022-11-12T05:47:04.443Z,41.75
2022-11-12T05:49:32.145Z,45.92
2022-11-12T05:52:01.211Z,47.95
2022-11-12T05:54:29.043Z,47.10
2022-11-12T05:56:56.768Z,45.20
2022-11-12T05:59:24.493Z,48.03
2022-11-12T06:01:52.187Z,52.75
2022-11-12T06:04:20.021Z,55.38
2022-11-12T06:06:47.708Z,50.40
2022-11-12T06:09:17.159Z,45.78
2022-11-12T06:11:45.283Z,62.03
2022-11-12T06:14:13.241Z,53.40
2022-11-12T06:16:40.948Z,51.60
2022-11-12T06:19:08.813Z,50.22
2022-11-12T06:21:36.525Z,44.75
2022-11-12T06:24:04.886Z,48.70
2022-11-12T06:26:33.957Z,54.25
2022-11-12T06:29:01.694Z,54.58
2022-11-12T06:31:29.390Z,64.60
2022-11-12T06:33:57.070Z,59.63
2022-11-12T06:36:24.895Z,61.65
2022-11-12T06:38:52.583Z,79.03
2022-11-12T06:41:20.533Z,66.32
2022-11-12T06:43:49.628Z,60.47
2022-11-12T06:46:18.333Z,56.55
2022-11-12T06:48:46.018Z,57.03
2022-11-12T06:51:17.912Z,53.80
2022-11-12T06:53:46.278Z,58.95
2022-11-12T06:56:14.858Z,61.03
2022-11-12T06:58:42.799Z,59.00
2022-11-12T07:01:13.550Z,55.83
2022-11-12T07:03:42.654Z,54.85
2022-11-12T07:06:13.053Z,66.18
2022-11-12T07:08:41.726Z,58.17
2022-11-12T07:11:09.504Z,57.88
2022-11-12T07:13:37.742Z,60.40
2022-11-12T07:16:07.464Z,62.05
2022-11-12T07:18:37.293Z,58.88
2022-11-12T07:21:07.428Z,62.50
2022-11-12T07:23:37.173Z,61.85
2022-11-12T07:26:07.110Z,62.13
2022-11-12T07:28:35.168Z,62.53
2022-11-12T07:31:06.017Z,60.65
2022-11-12T07:33:34.798Z,59.67
2022-11-12T07:36:06.131Z,57.10
2022-11-12T07:38:35.669Z,60.15
2022-11-12T07:41:05.530Z,55.38
2022-11-12T07:43:34.646Z,54.88
2022-11-12T07:46:10.087Z,53.17
2022-11-12T07:48:39.001Z,49.03
2022-11-12T07:51:12.876Z,52.00
2022-11-12T07:53:41.114Z,54.53
2022-11-12T07:56:11.374Z,54.28
2022-11-12T07:58:39.479Z,50.72
2022-11-12T08:01:11.337Z,58.47
2022-11-12T08:03:39.286Z,56.75
2022-11-12T08:06:09.297Z,55.00
2022-11-12T08:08:36.989Z,53.70
2022-11-12T08:11:04.774Z,72.30
2022-11-12T08:13:32.596Z,47.50
2022-11-12T08:16:00.757Z,48.15
2022-11-12T08:18:29.871Z,43.25
2022-11-12T08:21:01.528Z,51.38
2022-11-12T08:23:31.230Z,47.60
2022-11-12T08:26:00.221Z,48.65
2022-11-12T08:28:29.841Z,47.67
2022-11-12T08:30:58.067Z,44.47
2022-11-12T08:33:25.797Z,55.20
2022-11-12T08:35:53.550Z,45.80
2022-11-12T08:38:21.252Z,50.70
2022-11-12T08:40:50.267Z,44.67
2022-11-12T08:43:18.403Z,47.70
2022-11-12T08:45:46.083Z,48.42
2022-11-12T08:48:15.336Z,46.72
2022-11-12T08:50:43.529Z,48.75
2022-11-12T08:53:13.034Z,44.60
2022-11-12T08:55:41.383Z,45.50
2022-11-12T08:58:11.234Z,44.47
2022-11-12T09:00:42.108Z,46.63
2022-11-12T09:03:15.685Z,43.13
2022-11-12T09:05:43.751Z,44.85
2022-11-12T09:08:13.512Z,42.00
2022-11-12T09:10:42.228Z,41.95
2022-11-12T09:13:11.754Z,42.67
2022-11-12T09:15:39.453Z,42.70
2022-11-12T09:18:10.049Z,41.72
2022-11-12T09:20:37.732Z,40.25
2022-11-12T09:23:09.589Z,40.47
2022-11-12T09:25:37.707Z,39.97
2022-11-12T09:28:12.544Z,48.63
2022-11-12T09:30:45.406Z,44.83
2022-11-12T09:33:13.426Z,37.90
2022-11-12T09:35:41.183Z,40.53
2022-11-12T09:38:09.001Z,37.28
2022-11-12T09:40:57.135Z,38.50
2022-11-12T09:43:30.644Z,40.72
2022-11-12T09:46:26.529Z,36.30
2022-11-12T09:48:56.486Z,35.72
2022-11-12T09:51:28.425Z,36.35
2022-11-12T09:53:58.249Z,44.92
2022-11-12T09:56:28.187Z,51.50
2022-11-12T09:58:57.856Z,45.25
2022-11-12T10:01:39.873Z,41.45
2022-11-12T10:04:26.509Z,43.83
2022-11-12T10:07:01.474Z,33.45
2022-11-12T10:09:35.561Z,34.67
2022-11-12T10:12:31.254Z,34.42
2022-11-12T10:15:54.872Z,29.85
2022-11-12T10:18:30.888Z,35.58
2022-11-12T10:21:05.811Z,36.53
2022-11-12T10:23:41.780Z,34.25
2022-11-12T10:26:15.079Z,34.53
2022-11-12T10:28:47.735Z,34.60
2022-11-12T10:31:18.722Z,33.17
2022-11-12T10:33:46.435Z,28.73
2022-11-12T10:36:22.449Z,30.30
2022-11-12T10:38:53.520Z,32.40
2022-11-12T10:41:24.829Z,30.67
2022-11-12T10:44:00.187Z,31.50
2022-11-12T10:46:31.740Z,27.30
2022-11-12T10:49:02.461Z,31.58
2022-11-12T10:51:35.339Z,32.17
2022-11-12T10:54:22.969Z,29.20
2022-11-12T10:56:55.489Z,30.02
2022-11-12T10:59:24.785Z,34.63
2022-11-12T11:01:58.673Z,31.45
2022-11-12T11:04:32.354Z,31.92
2022-11-12T11:07:06.460Z,28.27
2022-11-12T11:09:35.399Z,27.08
2022-11-12T11:12:03.217Z,30.75
2022-11-12T11:14:33.795Z,30.83
2022-11-12T11:17:08.539Z,29.08
2022-11-12T11:19:40.137Z,28.63
2022-11-12T11:22:37.020Z,28.05
2022-11-12T11:25:16.129Z,28.73
2022-11-12T11:28:00.646Z,30.77
2022-11-12T11:30:28.632Z,30.10
2022-11-12T11:33:15.623Z,24.65
2022-11-12T11:35:55.336Z,26.65
2022-11-12T11:38:35.005Z,27.73
2022-11-12T11:41:18.496Z,27.60
2022-11-12T11:44:00.003Z,28.23
2022-11-12T11:46:42.556Z,26.85
2022-11-12T11:50:00.524Z,32.63
2022-11-12T11:52:45.774Z,28.83
2022-11-12T11:55:25.018Z,25.50
2022-11-12T11:58:00.612Z,29.77
2022-11-12T12:00:36.342Z,26.75
2022-11-12T12:03:22.850Z,29.70
2022-11-12T12:06:06.470Z,31.58
2022-11-12T12:08:51.891Z,29.23
2022-11-12T12:11:24.857Z,33.90
2022-11-12T12:14:05.926Z,30.20
2022-11-12T12:16:53.779Z,29.35
2022-11-12T12:19:42.690Z,31.95
2022-11-12T12:22:15.346Z,30.23
2022-11-12T12:24:51.291Z,31.15
2022-11-12T12:27:22.897Z,30.52
2022-11-12T12:29:53.212Z,30.00
2022-11-12T12:32:27.934Z,31.42
2022-11-12T12:35:03.306Z,27.58
2022-11-12T12:37:36.956Z,28.85
2022-11-12T12:40:16.280Z,24.42
2022-11-12T12:42:49.315Z,22.63
2022-11-12T12:45:36.193Z,23.70
2022-11-12T12:48:06.997Z,25.15
2022-11-12T12:50:39.614Z,25.60
2022-11-12T12:53:18.316Z,25.92
2022-11-12T12:55:49.492Z,24.75
2022-11-12T12:58:26.338Z,23.03
2022-11-12T13:00:59.593Z,23.80
2022-11-12T13:03:57.151Z,23.90
2022-11-12T13:06:27.751Z,22.77
2022-11-12T13:08:58.954Z,28.33
2022-11-12T13:12:08.855Z,25.13
2022-11-12T13:15:14.854Z,22.52
2022-11-12T13:18:00.208Z,27.08
2022-11-12T13:20:40.924Z,27.63
2022-11-12T13:23:53.983Z,30.27
2022-11-12T13:26:57.918Z,26.98
2022-11-12T13:29:44.374Z,26.58
2022-11-12T13:32:33.809Z,28.17
2022-11-12T13:35:27.867Z,32.10
2022-11-12T13:37:57.477Z,26.48
2022-11-12T13:40:38.296Z,30.05
2022-11-12T13:43:14.363Z,27.27
2022-11-12T13:45:46.514Z,25.90
2022-11-12T13:50:50.016Z,24.05
2022-11-12T13:53:23.606Z,24.60
2022-11-12T13:55:52.194Z,23.75
2022-11-12T13:58:28.373Z,26.13
2022-11-12T14:00:57.514Z,24.73
2022-11-12T14:03:29.300Z,24.17
2022-11-12T14:05:58.246Z,26.00
2022-11-12T14:08:36.967Z,29.88
2022-11-12T14:11:22.548Z,26.98
2022-11-12T14:14:06.398Z,27.88
2022-11-12T14:16:49.113Z,31.80
2022-11-12T14:19:39.488Z,28.17
2022-11-12T14:22:16.529Z,28.33
2022-11-12T14:24:45.861Z,25.80
2022-11-12T14:27:33.227Z,26.23
2022-11-12T14:30:18.720Z,29.65
2022-11-12T14:32:48.274Z,26.33
2022-11-12T14:35:31.648Z,25.75
2022-11-12T14:38:04.598Z,24.25
2022-11-12T14:40:34.683Z,25.00
2022-11-12T14:43:02.365Z,26.25
2022-11-12T14:45:35.211Z,23.40
2022-11-12T14:48:03.345Z,23.65
2022-11-12T14:50:39.213Z,25.40
2022-11-12T14:53:17.276Z,23.17
2022-11-12T14:55:51.866Z,26.75
2022-11-12T14:58:21.701Z,22.23
2022-11-12T15:00:52.632Z,24.83
2022-11-12T15:03:24.173Z,25.02
2022-11-12T15:06:08.556Z,21.20
2022-11-12T15:08:38.253Z,23.40
2022-11-12T15:11:24.747Z,23.67
2022-11-12T15:13:56.281Z,26.52
2022-11-12T15:16:28.368Z,21.48
2022-11-12T15:21:36.427Z,24.88
2022-11-12T15:24:08.749Z,24.85
2022-11-12T15:26:39.811Z,24.60
2022-11-12T15:29:23.570Z,21.65
2022-11-12T15:31:54.651Z,22.30
2022-11-12T15:34:28.036Z,23.38
2022-11-12T15:36:56.932Z,23.23
2022-11-12T15:39:26.142Z,22.75
2022-11-12T15:41:59.326Z,24.33
2022-11-12T15:44:27.556Z,22.63
2022-11-12T15:46:58.791Z,30.98
2022-11-12T15:49:26.534Z,27.53
2022-11-12T15:51:54.575Z,27.27
2022-11-12T15:54:22.315Z,29.30
2022-11-12T15:56:50.866Z,27.73
2022-11-12T15:59:19.456Z,30.02
2022-11-12T16:01:47.385Z,28.42
2022-11-12T16:04:16.524Z,34.22
2022-11-12T16:06:44.334Z,31.00
2022-11-12T16:09:12.079Z,37.55
2022-11-12T16:11:40.146Z,45.03
2022-11-12T16:14:13.755Z,42.42
2022-11-12T16:16:41.489Z,38.63
2022-11-12T16:19:14.619Z,41.17
2022-11-12T16:21:43.708Z,43.58
2022-11-12T16:24:11.473Z,40.72
2022-11-12T16:26:39.397Z,38.38
2022-11-12T16:29:12.930Z,42.90
2022-11-12T16:31:42.737Z,41.80
2022-11-12T16:34:10.445Z,44.65
2022-11-12T16:36:38.534Z,45.40
2022-11-12T16:39:07.746Z,41.15
2022-11-12T16:41:35.397Z,43.42
2022-11-12T16:44:03.590Z,44.35
2022-11-12T16:46:39.272Z,43.15
2022-11-12T16:49:07.406Z,50.33
2022-11-12T16:51:35.222Z,44.72
2022-11-12T16:54:02.999Z,42.13
2022-11-12T16:56:32.574Z,43.95
2022-11-12T16:59:00.583Z,47.95
2022-11-12T17:01:30.091Z,47.30
2022-11-12T17:03:58.771Z,44.88
2022-11-12T17:06:33.904Z,49.85
2022-11-12T17:09:01.584Z,50.35
2022-11-12T17:11:29.294Z,49.78
2022-11-12T17:13:58.372Z,47.60
2022-11-12T17:16:26.085Z,50.25
2022-11-12T17:18:57.881Z,53.42
2022-11-12T17:21:26.341Z,52.60
2022-11-12T17:23:56.219Z,52.63
2022-11-12T17:26:24.122Z,52.78
2022-11-12T17:28:59.208Z,49.40
2022-11-12T17:31:30.681Z,51.67
2022-11-12T17:33:58.635Z,48.28
2022-11-12T17:36:28.516Z,47.55
2022-11-12T17:38:56.860Z,52.97
2022-11-12T17:41:25.269Z,49.95
2022-11-12T17:43:55.413Z,46.97
2022-11-12T17:46:23.141Z,46.40
2022-11-12T17:48:52.511Z,44.45
2022-11-12T17:51:22.689Z,46.50
2022-11-12T17:53:50.730Z,50.92
2022-11-12T17:56:20.779Z,51.85
2022-11-12T17:58:49.661Z,47.90
2022-11-12T18:01:19.679Z,50.30
2022-11-12T18:03:50.186Z,52.80
2022-11-12T18:06:20.789Z,49.10
2022-11-12T18:08:52.942Z,51.33
2022-11-12T18:13:48.317Z,56.25
2022-11-12T18:16:17.330Z,55.58
2022-11-12T18:18:45.831Z,58.97
2022-11-12T18:21:14.185Z,57.83
2022-11-12T18:23:45.248Z,60.85
2022-11-12T18:26:15.125Z,63.83
2022-11-12T18:28:43.184Z,58.22
2022-11-12T18:31:13.405Z,56.17
2022-11-12T18:33:41.079Z,57.97
2022-11-12T18:36:12.456Z,58.55
2022-11-12T18:38:40.166Z,58.00
2022-11-12T18:41:11.316Z,58.40
2022-11-12T18:43:40.098Z,55.47
2022-11-12T18:46:09.542Z,60.35
2022-11-12T18:48:38.972Z,61.13
2022-11-12T18:51:08.469Z,57.70
2022-11-12T18:53:37.473Z,59.33
2022-11-12T18:56:07.902Z,62.15
2022-11-12T18:58:37.384Z,61.53
2022-11-12T19:01:05.858Z,57.92
2022-11-12T19:03:33.657Z,55.15
2022-11-12T19:06:02.437Z,49.40
2022-11-12T19:08:30.183Z,57.53
2022-11-12T19:10:59.444Z,57.63
2022-11-12T19:13:27.629Z,57.22
2022-11-12T19:16:03.260Z,57.67
2022-11-12T19:18:31.209Z,52.03
2022-11-12T19:21:03.447Z,56.38
2022-11-12T19:23:31.622Z,58.50
2022-11-12T19:26:01.011Z,54.17
2022-11-12T19:28:29.188Z,54.70
2022-11-12T19:30:59.163Z,58.08
2022-11-12T19:33:26.925Z,59.63
2022-11-12T19:35:54.688Z,57.53
2022-11-12T19:38:22.741Z,59.80
2022-11-12T19:40:50.620Z,53.85
2022-11-12T19:43:18.574Z,54.67
2022-11-12T19:45:46.357Z,62.60
2022-11-12T19:48:15.550Z,62.97
2022-11-12T19:50:43.241Z,58.50
2022-11-12T19:53:10.904Z,61.83
2022-11-12T19:55:39.979Z,60.45
2022-11-12T19:58:08.236Z,63.33
2022-11-12T20:00:36.449Z,65.97
2022-11-12T20:03:04.400Z,61.60
2022-11-12T20:05:33.512Z,60.88
2022-11-12T20:08:01.296Z,56.92
2022-11-12T20:10:29.033Z,60.40
2022-11-12T20:12:56.777Z,60.60
2022-11-12T20:15:24.523Z,59.67
2022-11-12T20:17:52.268Z,59.72
2022-11-12T20:20:20.147Z,53.55
2022-11-12T20:22:49.342Z,54.28
2022-11-12T20:25:17.147Z,60.45
2022-11-12T20:27:44.908Z,61.33
2022-11-12T20:30:13.429Z,66.95
2022-11-12T20:32:41.184Z,61.85
2022-11-12T20:35:17.738Z,62.75
2022-11-12T20:37:50.343Z,58.22
2022-11-12T20:40:18.472Z,62.80
2022-11-12T20:42:46.807Z,62.53
2022-11-12T20:45:14.672Z,60.67
2022-11-12T20:47:42.649Z,60.70
2022-11-12T20:50:10.799Z,63.97
2022-11-12T20:52:38.517Z,64.25
2022-11-12T20:55:08.297Z,73.22
2022-11-12T20:57:36.050Z,61.20
2022-11-12T21:00:03.838Z,63.05
2022-11-12T21:02:31.557Z,65.57
2022-11-12T21:04:59.249Z,61.13
2022-11-12T21:07:27.068Z,58.50
2022-11-12T21:09:54.942Z,52.25
2022-11-12T21:12:23.988Z,57.22
2022-11-12T21:14:51.676Z,56.05
2022-11-12T21:17:19.814Z,55.33
2022-11-12T21:19:47.563Z,54.30
2022-11-12T21:22:17.136Z,51.35
2022-11-12T21:24:44.835Z,54.65
2022-11-12T21:27:14.131Z,55.28
2022-11-12T21:29:43.522Z,52.92
2022-11-12T21:32:11.306Z,50.00
2022-11-12T21:34:39.028Z,49.90
2022-11-12T21:37:06.700Z,46.28
2022-11-12T21:39:34.436Z,46.45
2022-11-12T21:42:02.264Z,46.50
2022-11-12T21:44:30.325Z,41.85
2022-11-12T21:46:59.767Z,48.25
2022-11-12T21:49:27.593Z,45.72
2022-11-12T21:51:55.267Z,46.72
2022-11-12T21:54:23.150Z,43.28
2022-11-12T21:56:50.881Z,49.95
2022-11-12T21:59:18.920Z,49.85
2022-11-12T22:01:46.680Z,47.50
2022-11-12T22:04:18.413Z,49.67
2022-11-12T22:06:46.418Z,47.53
2022-11-12T22:09:14.245Z,46.22
2022-11-12T22:11:41.976Z,45.72
2022-11-12T22:14:09.661Z,44.42
2022-11-12T22:16:37.741Z,41.00
2022-11-12T22:19:05.442Z,38.53
2022-11-12T22:21:39.746Z,43.22
2022-11-12T22:24:08.739Z,44.50
2022-11-12T22:26:36.548Z,42.63
2022-11-12T22:29:04.476Z,40.55
2022-11-12T22:31:33.712Z,38.38
2022-11-12T22:34:02.661Z,38.42
2022-11-12T22:36:32.838Z,43.90
2022-11-12T22:39:01.984Z,42.42
2022-11-12T22:41:31.443Z,44.72
2022-11-12T22:44:02.137Z,43.42
2022-11-12T22:46:33.452Z,37.20
2022-11-12T22:49:02.247Z,43.03
2022-11-12T22:51:33.750Z,41.75
2022-11-12T22:54:04.482Z,42.67
2022-11-12T22:56:34.278Z,46.70
2022-11-12T22:59:03.460Z,45.92
2022-11-12T23:01:32.921Z,51.75
2022-11-12T23:04:02.818Z,51.03
2022-11-12T23:06:31.767Z,48.63
2022-11-12T23:09:00.834Z,45.95
2022-11-12T23:11:30.324Z,52.75
2022-11-12T23:13:58.383Z,45.22
2022-11-12T23:16:29.522Z,44.22
2022-11-12T23:18:57.671Z,45.92
2022-11-12T23:21:27.484Z,43.53
2022-11-12T23:23:57.138Z,43.25
2022-11-12T23:26:26.421Z,42.63
2022-11-12T23:28:55.508Z,41.17
2022-11-12T23:31:24.697Z,41.83
2022-11-12T23:33:54.192Z,38.72
2022-11-12T23:36:22.887Z,36.25
2022-11-12T23:38:51.877Z,37.72
2022-11-12T23:41:22.699Z,32.90
2022-11-12T23:43:50.916Z,35.30
2022-11-12T23:46:20.115Z,38.00
2022-11-12T23:48:47.881Z,39.03
2022-11-12T23:51:17.688Z,37.28
2022-11-12T23:53:45.477Z,35.70
2022-11-12T23:56:15.699Z,35.67
2022-11-12T23:58:43.828Z,34.88
